Wentworth, New Hampshire
Current Conditions -  °F | °C
As of 11:15 AM on Tuesday 21 Oct 2014 (Local Time) from K1P1 Reporting Station
Moderate Rain Moderate Rain  
Wind Chill: 47°   Ceiling: 2600
Heat Index: 47°   Visibility: 10mi
Dew Point: 46°   Wind: 0mph
Humidity: 98%   Direction: NA
Pressure: 30.02"   Gusts: NA
Location:  43.87°N, 71.91°W
Report Text: K1P1 211515Z AUTO 00000KT 10SM RA BKN026 OVC050 08/08 A3002 RMK AO2 T00810078
Loading
Personal Weather Stations






























Interactive Weather Map New forecast layout! Learn more

10-Day Weather Forecast

Advertisements
Track Severe Weather on mobile